createdAt,value
2019-01-20T00:01:58.782Z,97.10
2019-01-20T00:04:29.362Z,97.10
2019-01-20T00:06:59.387Z,97.10
2019-01-20T00:09:29.079Z,97.10
2019-01-20T00:11:58.783Z,97.20
2019-01-20T00:14:28.528Z,97.30
2019-01-20T00:16:59.254Z,97.40
2019-01-20T00:19:29.050Z,97.50
2019-01-20T00:21:58.914Z,97.60
2019-01-20T00:24:28.533Z,97.60
2019-01-20T00:26:58.029Z,97.70
2019-01-20T00:29:27.673Z,97.80
2019-01-20T00:31:57.438Z,97.90
2019-01-20T00:34:27.001Z,98.00
2019-01-20T00:36:56.803Z,98.10
2019-01-20T00:39:26.375Z,98.10
2019-01-20T00:41:56.018Z,98.20
2019-01-20T00:44:25.620Z,98.20
2019-01-20T00:46:55.189Z,98.30
2019-01-20T00:49:24.771Z,98.30
2019-01-20T00:51:54.376Z,98.70
2019-01-20T00:54:23.977Z,98.40
2019-01-20T00:56:53.600Z,98.40
2019-01-20T00:59:23.579Z,98.50
2019-01-20T01:01:53.254Z,98.50
2019-01-20T01:04:22.905Z,98.40
2019-01-20T01:06:52.584Z,98.50
2019-01-20T01:09:22.418Z,98.50
2019-01-20T01:11:53.660Z,98.60
2019-01-20T01:14:23.360Z,98.70
2019-01-20T01:16:53.041Z,98.60
2019-01-20T01:19:23.389Z,98.70
2019-01-20T01:21:53.315Z,98.70
2019-01-20T01:24:23.058Z,98.70
2019-01-20T01:26:52.721Z,98.70
2019-01-20T01:29:22.580Z,98.70
2019-01-20T01:31:52.317Z,98.70
2019-01-20T01:34:23.456Z,98.70
2019-01-20T01:37:13.387Z,98.70
2019-01-20T01:39:43.108Z,98.60
2019-01-20T01:42:13.100Z,98.60
2019-01-20T01:44:43.029Z,98.60
2019-01-20T01:47:13.212Z,98.60
2019-01-20T01:49:42.838Z,98.60
2019-01-20T01:52:12.547Z,98.60
2019-01-20T01:54:42.134Z,98.60
2019-01-20T01:57:11.672Z,98.70
2019-01-20T01:59:41.574Z,98.60
2019-01-20T02:02:11.228Z,98.70
2019-01-20T02:04:41.209Z,98.70
2019-01-20T02:07:11.122Z,98.70
2019-01-20T02:09:42.755Z,98.70
2019-01-20T02:12:13.932Z,98.70
2019-01-20T02:14:45.060Z,98.80
2019-01-20T02:17:15.056Z,98.90
2019-01-20T02:19:44.581Z,98.90
2019-01-20T02:22:14.401Z,98.90
2019-01-20T02:24:44.024Z,98.90
2019-01-20T02:27:13.703Z,99.00
2019-01-20T02:29:45.036Z,99.00
2019-01-20T02:32:14.778Z,99.00
2019-01-20T02:34:44.442Z,99.00
2019-01-20T02:37:14.083Z,99.00
2019-01-20T02:39:43.582Z,99.00
2019-01-20T02:42:13.284Z,99.00
2019-01-20T02:44:42.699Z,99.30
2019-01-20T02:47:12.248Z,99.50
2019-01-20T02:49:41.728Z,99.40
2019-01-20T02:52:11.350Z,99.30
2019-01-20T02:54:40.800Z,99.20
2019-01-20T02:57:10.336Z,99.20
2019-01-20T02:59:38.663Z,99.10
2019-01-20T03:02:07.077Z,99.10
2019-01-20T03:04:35.412Z,98.90
2019-01-20T03:07:03.964Z,98.80
2019-01-20T03:09:32.333Z,98.80
2019-01-20T03:12:03.553Z,98.80
2019-01-20T03:14:30.789Z,98.50
2019-01-20T03:16:59.187Z,98.80
2019-01-20T03:19:27.644Z,98.80
2019-01-20T03:21:56.079Z,98.80
2019-01-20T03:24:24.423Z,98.80
2019-01-20T03:26:52.720Z,98.80
2019-01-20T03:29:21.160Z,98.70
2019-01-20T03:31:49.490Z,98.80
2019-01-20T03:34:17.865Z,98.80
2019-01-20T03:36:46.207Z,98.90
2019-01-20T03:39:14.627Z,99.00
2019-01-20T03:41:43.056Z,99.00
2019-01-20T03:44:11.541Z,99.00
2019-01-20T03:46:39.993Z,99.00
2019-01-20T03:49:08.375Z,99.00
2019-01-20T03:51:36.783Z,99.00
2019-01-20T03:54:05.336Z,99.00
2019-01-20T03:56:33.818Z,99.00
2019-01-20T03:59:02.167Z,99.10
2019-01-20T04:01:30.600Z,99.10
2019-01-20T04:03:59.007Z,99.10
2019-01-20T04:06:27.373Z,99.10
2019-01-20T04:08:55.756Z,99.10
2019-01-20T04:11:24.129Z,99.10
2019-01-20T04:13:52.547Z,99.30
2019-01-20T04:16:20.960Z,99.30
2019-01-20T04:18:49.392Z,99.20
2019-01-20T04:21:17.834Z,99.30
2019-01-20T04:23:46.170Z,99.30
2019-01-20T04:26:14.607Z,99.30
2019-01-20T04:28:43.001Z,99.40
2019-01-20T04:31:11.346Z,99.50
2019-01-20T04:33:39.653Z,99.90
2019-01-20T04:36:08.065Z,99.60
2019-01-20T04:38:36.508Z,99.60
2019-01-20T04:41:04.910Z,99.70
2019-01-20T04:43:33.318Z,99.80
2019-01-20T04:46:01.758Z,99.70
2019-01-20T04:48:30.200Z,99.90
2019-01-20T04:50:58.620Z,99.70
2019-01-20T04:53:27.819Z,99.70
2019-01-20T04:55:56.255Z,99.80
2019-01-20T04:58:24.597Z,99.70
2019-01-20T05:00:53.041Z,99.70
2019-01-20T05:03:21.489Z,99.70
2019-01-20T05:05:49.856Z,99.60
2019-01-20T05:08:18.209Z,99.60
2019-01-20T05:10:46.578Z,99.60
2019-01-20T05:13:14.925Z,99.60
2019-01-20T05:15:43.291Z,99.70
2019-01-20T05:18:11.670Z,99.70
2019-01-20T05:20:39.973Z,99.80
2019-01-20T05:23:08.322Z,99.80
2019-01-20T05:25:36.753Z,99.70
2019-01-20T05:28:05.191Z,99.80
2019-01-20T05:30:33.482Z,99.70
2019-01-20T05:33:01.927Z,99.70
2019-01-20T05:35:30.284Z,99.70
2019-01-20T05:37:58.702Z,99.60
2019-01-20T05:40:27.075Z,99.60
2019-01-20T05:42:55.527Z,99.80
2019-01-20T05:45:24.729Z,99.80
2019-01-20T05:47:53.222Z,99.80
2019-01-20T05:50:21.569Z,99.90
2019-01-20T05:52:50.103Z,99.90
2019-01-20T05:55:18.606Z,99.90
2019-01-20T05:57:46.964Z,99.90
2019-01-20T06:00:16.925Z,99.90
2019-01-20T06:02:45.484Z,99.90
2019-01-20T06:05:13.858Z,99.90
2019-01-20T06:07:42.314Z,99.90
2019-01-20T06:10:10.989Z,99.90
2019-01-20T06:12:39.428Z,99.90
2019-01-20T06:15:09.385Z,99.90
2019-01-20T06:17:37.818Z,99.90
2019-01-20T06:20:06.788Z,99.90
2019-01-20T06:22:35.116Z,99.90
2019-01-20T06:25:03.585Z,99.90
2019-01-20T06:27:31.894Z,99.90
2019-01-20T06:30:00.273Z,99.90
2019-01-20T06:32:28.681Z,99.90
2019-01-20T06:34:57.121Z,99.80
2019-01-20T06:37:25.520Z,99.70
2019-01-20T06:39:54.123Z,99.90
2019-01-20T06:42:22.571Z,99.70
2019-01-20T06:44:50.966Z,99.70
2019-01-20T06:47:19.345Z,99.80
2019-01-20T06:49:47.760Z,99.80
2019-01-20T06:52:16.064Z,99.90
2019-01-20T06:54:44.560Z,99.90
2019-01-20T06:57:13.075Z,99.70
2019-01-20T06:59:41.483Z,99.70
2019-01-20T07:02:09.879Z,99.70
2019-01-20T07:04:38.280Z,99.70
2019-01-20T07:07:06.591Z,99.80
2019-01-20T07:09:34.954Z,99.80
2019-01-20T07:12:03.278Z,99.80
2019-01-20T07:14:31.653Z,99.80
2019-01-20T07:17:00.014Z,99.80
2019-01-20T07:19:28.347Z,99.80
2019-01-20T07:21:56.691Z,99.60
2019-01-20T07:24:25.130Z,99.80
2019-01-20T07:26:53.520Z,99.80
2019-01-20T07:29:21.929Z,99.90
2019-01-20T07:31:50.290Z,99.80
2019-01-20T07:34:18.699Z,99.80
2019-01-20T07:36:46.997Z,99.80
2019-01-20T07:39:15.365Z,99.80
2019-01-20T07:41:43.721Z,99.80
2019-01-20T07:44:12.041Z,99.80
2019-01-20T07:46:40.461Z,99.90
2019-01-20T07:49:08.857Z,99.90
2019-01-20T07:51:37.166Z,99.90
2019-01-20T07:54:05.509Z,99.90
2019-01-20T07:56:33.800Z,99.90
2019-01-20T07:59:02.250Z,99.90
2019-01-20T08:01:30.715Z,99.90
2019-01-20T08:03:59.271Z,99.90
2019-01-20T08:06:27.681Z,99.90
2019-01-20T08:08:56.232Z,99.90
2019-01-20T08:11:24.718Z,99.90
2019-01-20T08:13:53.129Z,99.90
2019-01-20T08:16:21.510Z,99.90
2019-01-20T08:18:50.021Z,99.90
2019-01-20T08:21:18.461Z,99.90
2019-01-20T08:23:46.825Z,99.90
2019-01-20T08:26:15.158Z,99.90
2019-01-20T08:28:43.677Z,99.90
2019-01-20T08:31:12.249Z,99.90
2019-01-20T08:33:40.759Z,99.90
2019-01-20T08:36:09.279Z,99.90
2019-01-20T08:38:38.097Z,99.90
2019-01-20T08:41:06.673Z,99.90
2019-01-20T08:43:38.545Z,99.90
2019-01-20T08:46:15.484Z,99.90
2019-01-20T08:48:44.126Z,99.90
2019-01-20T08:51:13.287Z,99.90
2019-01-20T08:53:41.697Z,99.90
2019-01-20T08:56:10.175Z,99.90
2019-01-20T08:58:38.706Z,99.90
2019-01-20T09:01:07.173Z,99.90
2019-01-20T09:03:35.706Z,99.90
2019-01-20T09:06:04.395Z,99.90
2019-01-20T09:08:32.949Z,99.90
2019-01-20T09:11:01.471Z,99.90
2019-01-20T09:13:30.346Z,99.90
2019-01-20T09:15:58.823Z,99.90
2019-01-20T09:18:28.794Z,99.90
2019-01-20T09:20:57.361Z,99.90
2019-01-20T09:23:25.897Z,99.90
2019-01-20T09:25:54.314Z,99.90
2019-01-20T09:28:22.756Z,99.90
2019-01-20T09:30:51.264Z,99.90
2019-01-20T09:33:24.483Z,99.90
2019-01-20T09:35:49.864Z,99.90
2019-01-20T09:38:18.293Z,99.90
2019-01-20T09:40:46.646Z,99.90
2019-01-20T09:43:15.128Z,99.90
2019-01-20T09:45:43.912Z,99.90
2019-01-20T09:48:12.670Z,99.90
2019-01-20T09:50:41.132Z,99.90
2019-01-20T09:53:09.629Z,99.90
2019-01-20T09:55:40.023Z,99.90
2019-01-20T09:58:08.428Z,99.90
2019-01-20T10:00:36.963Z,99.90
2019-01-20T10:03:05.546Z,99.90
2019-01-20T10:05:33.958Z,99.90
2019-01-20T10:08:02.275Z,99.90
2019-01-20T10:10:30.640Z,99.90
2019-01-20T10:12:59.001Z,99.90
2019-01-20T10:15:27.422Z,99.90
2019-01-20T10:17:55.816Z,99.80
2019-01-20T10:20:25.593Z,99.80
2019-01-20T10:22:53.925Z,99.80
2019-01-20T10:25:44.689Z,99.70
2019-01-20T10:28:14.368Z,99.00
2019-01-20T10:30:42.692Z,98.70
2019-01-20T10:33:11.136Z,98.40
2019-01-20T10:35:50.442Z,98.30
2019-01-20T10:38:18.787Z,98.00
2019-01-20T10:40:47.274Z,97.30
2019-01-20T10:43:15.785Z,97.40
2019-01-20T10:45:44.156Z,96.80
2019-01-20T10:48:12.628Z,96.90
2019-01-20T10:50:41.133Z,96.50
2019-01-20T10:53:09.546Z,95.70
2019-01-20T10:55:37.955Z,94.70
2019-01-20T10:58:06.382Z,94.10
2019-01-20T11:00:36.524Z,93.10
2019-01-20T11:03:05.171Z,93.90
2019-01-20T11:05:41.227Z,95.00
2019-01-20T11:08:09.691Z,94.30
2019-01-20T11:10:42.855Z,94.50
2019-01-20T11:13:11.698Z,91.50
2019-01-20T11:15:43.466Z,91.50
2019-01-20T11:18:11.935Z,91.90
2019-01-20T11:20:59.545Z,91.70
2019-01-20T11:23:31.519Z,91.10
2019-01-20T11:26:00.260Z,90.50
2019-01-20T11:28:28.898Z,90.30
2019-01-20T11:30:57.270Z,90.30
2019-01-20T11:33:25.938Z,90.20
2019-01-20T11:35:54.504Z,84.70
2019-01-20T11:38:26.451Z,81.90
2019-01-20T11:40:57.255Z,82.00
2019-01-20T11:44:17.015Z,84.30
2019-01-20T11:46:01.333Z,81.40
2019-01-20T11:48:35.333Z,80.10
2019-01-20T11:51:04.982Z,82.90
2019-01-20T11:53:37.762Z,84.20
2019-01-20T11:56:07.033Z,81.50
2019-01-20T11:58:44.932Z,77.10
2019-01-20T12:01:13.846Z,78.00
2019-01-20T12:03:42.441Z,74.60
2019-01-20T12:06:12.168Z,75.50
2019-01-20T12:08:41.148Z,74.90
2019-01-20T12:11:09.602Z,72.20
2019-01-20T12:13:38.192Z,74.60
2019-01-20T12:16:07.225Z,76.20
2019-01-20T12:18:37.649Z,74.70
2019-01-20T12:21:06.182Z,74.40
2019-01-20T12:23:34.683Z,75.00
2019-01-20T12:26:02.991Z,73.80
2019-01-20T12:28:31.410Z,74.20
2019-01-20T12:30:59.798Z,73.80
2019-01-20T12:33:28.182Z,71.50
2019-01-20T12:35:56.509Z,72.00
2019-01-20T12:38:25.052Z,72.10
2019-01-20T12:40:53.478Z,72.20
2019-01-20T12:43:21.961Z,73.30
2019-01-20T12:45:50.596Z,73.60
2019-01-20T12:48:19.010Z,73.30
2019-01-20T12:50:47.372Z,70.30
2019-01-20T12:53:15.740Z,68.90
2019-01-20T12:55:44.067Z,69.50
2019-01-20T12:58:12.522Z,68.40
2019-01-20T13:00:40.863Z,68.90
2019-01-20T13:03:10.253Z,69.00
2019-01-20T13:05:38.838Z,71.10
2019-01-20T13:08:08.058Z,69.90
2019-01-20T13:10:36.389Z,70.10
2019-01-20T13:13:05.160Z,70.00
2019-01-20T13:15:33.586Z,69.40
2019-01-20T13:18:02.203Z,68.60
2019-01-20T13:20:30.701Z,68.60
2019-01-20T13:22:59.102Z,68.20
2019-01-20T13:25:28.472Z,67.80
2019-01-20T13:27:57.182Z,67.60
2019-01-20T13:30:26.719Z,67.90
2019-01-20T13:32:55.029Z,69.10
2019-01-20T13:35:23.696Z,67.60
2019-01-20T13:38:11.060Z,66.20
2019-01-20T13:41:08.009Z,65.70
2019-01-20T13:43:36.605Z,65.30
2019-01-20T13:46:05.485Z,66.60
2019-01-20T13:48:33.887Z,65.20
2019-01-20T13:51:02.559Z,65.80
2019-01-20T13:53:31.282Z,66.30
2019-01-20T13:56:01.269Z,67.40
2019-01-20T13:58:29.927Z,68.40
2019-01-20T14:00:59.003Z,68.30
2019-01-20T14:03:28.259Z,69.40
2019-01-20T14:05:57.313Z,68.90
2019-01-20T14:08:26.438Z,70.50
2019-01-20T14:10:55.299Z,72.80
2019-01-20T14:13:24.633Z,74.30
2019-01-20T14:15:54.197Z,76.50
2019-01-20T14:18:24.241Z,78.60
2019-01-20T14:20:53.310Z,80.70
2019-01-20T14:23:25.052Z,83.30
2019-01-20T14:25:55.149Z,85.00
2019-01-20T14:28:24.492Z,86.40
2019-01-20T14:30:53.901Z,86.90
2019-01-20T14:33:22.818Z,87.20
2019-01-20T14:35:51.845Z,87.70
2019-01-20T14:38:21.179Z,88.90
2019-01-20T14:40:49.733Z,90.00
2019-01-20T14:43:18.394Z,90.20
2019-01-20T14:45:47.123Z,90.40
2019-01-20T14:48:19.342Z,90.70
2019-01-20T14:50:51.785Z,90.70
2019-01-20T14:53:20.309Z,91.20
2019-01-20T14:55:48.779Z,91.50
2019-01-20T14:58:17.323Z,91.70
2019-01-20T15:00:45.791Z,92.20
2019-01-20T15:03:14.330Z,92.60
2019-01-20T15:05:42.819Z,93.10
2019-01-20T15:08:11.372Z,93.70
2019-01-20T15:10:39.853Z,94.10
2019-01-20T15:13:08.251Z,94.50
2019-01-20T15:15:37.709Z,94.90
2019-01-20T15:18:06.427Z,95.10
2019-01-20T15:20:34.797Z,95.50
2019-01-20T15:23:03.307Z,95.80
2019-01-20T15:25:31.848Z,96.00
2019-01-20T15:28:00.438Z,96.10
2019-01-20T15:30:29.948Z,96.40
2019-01-20T15:32:59.328Z,96.50
2019-01-20T15:35:28.043Z,96.60
2019-01-20T15:37:57.454Z,96.70
2019-01-20T15:40:26.703Z,97.00
2019-01-20T15:42:55.731Z,97.00
2019-01-20T15:45:24.827Z,97.10
2019-01-20T15:47:53.411Z,97.20
2019-01-20T15:50:22.909Z,97.20
2019-01-20T15:52:51.584Z,97.20
2019-01-20T15:55:20.092Z,96.70
2019-01-20T15:57:48.497Z,96.60
2019-01-20T16:00:18.147Z,96.60
2019-01-20T16:02:46.758Z,96.70
2019-01-20T16:05:15.327Z,96.90
2019-01-20T16:07:43.855Z,97.10
2019-01-20T16:10:13.343Z,97.80
2019-01-20T16:12:41.990Z,98.30
2019-01-20T16:15:14.911Z,98.10
2019-01-20T16:17:43.660Z,97.50
2019-01-20T16:20:12.495Z,97.10
2019-01-20T16:22:43.212Z,97.10
2019-01-20T16:25:14.020Z,97.00
2019-01-20T16:27:42.879Z,97.20
2019-01-20T16:30:13.328Z,97.30
2019-01-20T16:32:43.939Z,97.40
2019-01-20T16:35:13.397Z,97.60
2019-01-20T16:37:42.126Z,97.70
2019-01-20T16:40:17.747Z,97.70
2019-01-20T16:42:46.530Z,97.80
2019-01-20T16:45:16.688Z,97.80
2019-01-20T16:47:48.959Z,97.80
2019-01-20T16:50:25.545Z,97.90
2019-01-20T16:52:55.876Z,98.00
2019-01-20T16:55:27.075Z,98.00
2019-01-20T16:57:55.669Z,98.00
2019-01-20T17:00:25.666Z,98.00
2019-01-20T17:02:54.883Z,98.10
2019-01-20T17:05:26.762Z,98.20
2019-01-20T17:07:54.864Z,98.30
2019-01-20T17:10:25.027Z,98.40
2019-01-20T17:12:53.821Z,98.30
2019-01-20T17:15:26.469Z,98.40
2019-01-20T17:17:55.277Z,98.50
2019-01-20T17:20:23.715Z,98.60
2019-01-20T17:22:52.398Z,99.00
2019-01-20T17:25:21.171Z,98.60
2019-01-20T17:27:49.782Z,98.70
2019-01-20T17:30:19.241Z,98.80
2019-01-20T17:32:47.753Z,98.90
2019-01-20T17:35:16.668Z,99.10
2019-01-20T17:37:47.730Z,99.10
2019-01-20T17:40:18.921Z,99.20
2019-01-20T17:42:48.812Z,99.30
2019-01-20T17:45:19.313Z,99.30
2019-01-20T17:47:49.425Z,99.20
2019-01-20T17:50:22.108Z,99.30
2019-01-20T17:52:51.635Z,99.30
2019-01-20T17:55:22.247Z,99.40
2019-01-20T17:57:50.987Z,99.60
2019-01-20T18:00:20.803Z,99.70
2019-01-20T18:02:49.227Z,99.80
2019-01-20T18:05:20.836Z,99.80
2019-01-20T18:07:51.144Z,99.80
2019-01-20T18:10:19.685Z,99.90
2019-01-20T18:12:48.638Z,99.90
2019-01-20T18:15:17.827Z,99.90
2019-01-20T18:17:47.673Z,99.90
2019-01-20T18:20:17.898Z,99.90
2019-01-20T18:22:46.368Z,99.90
2019-01-20T18:25:15.176Z,99.90
2019-01-20T18:27:43.660Z,99.90
2019-01-20T18:30:14.381Z,99.90
2019-01-20T18:32:43.312Z,99.90
2019-01-20T18:35:12.050Z,99.90
2019-01-20T18:37:40.813Z,99.90
2019-01-20T18:40:11.215Z,99.90
2019-01-20T18:42:40.135Z,99.90
2019-01-20T18:45:09.747Z,99.90
2019-01-20T18:47:38.524Z,99.90
2019-01-20T18:50:08.244Z,99.90
2019-01-20T18:52:36.681Z,99.90
2019-01-20T18:55:05.718Z,99.90
2019-01-20T18:57:34.169Z,99.90
2019-01-20T19:00:02.783Z,99.90
2019-01-20T19:02:31.264Z,99.90
2019-01-20T19:04:59.603Z,99.90
2019-01-20T19:07:28.066Z,99.90
2019-01-20T19:09:56.575Z,99.90
2019-01-20T19:12:24.996Z,99.90
2019-01-20T19:14:53.413Z,99.90
2019-01-20T19:17:21.915Z,99.90
2019-01-20T19:19:50.354Z,99.90
2019-01-20T19:22:18.776Z,99.90
2019-01-20T19:24:47.716Z,99.90
2019-01-20T19:27:16.206Z,99.90
2019-01-20T19:29:44.657Z,99.90
2019-01-20T19:32:13.086Z,99.90
2019-01-20T19:34:41.515Z,99.90
2019-01-20T19:37:09.945Z,99.90
2019-01-20T19:39:38.436Z,99.90
2019-01-20T19:42:07.202Z,99.90
2019-01-20T19:44:35.639Z,99.90
2019-01-20T19:47:04.020Z,99.90
2019-01-20T19:49:32.639Z,99.90
2019-01-20T19:52:01.116Z,99.90
2019-01-20T19:54:29.504Z,99.90
2019-01-20T19:56:57.963Z,99.90
2019-01-20T19:59:26.383Z,99.90
2019-01-20T20:01:54.880Z,99.90
2019-01-20T20:04:23.385Z,99.90
2019-01-20T20:06:51.791Z,99.90
2019-01-20T20:09:20.350Z,99.90
2019-01-20T20:11:48.802Z,99.90
2019-01-20T20:14:17.256Z,99.90
2019-01-20T20:16:45.875Z,99.90
2019-01-20T20:19:14.379Z,99.90
2019-01-20T20:21:43.965Z,99.90
2019-01-20T20:24:12.568Z,99.90
2019-01-20T20:26:41.274Z,99.90
2019-01-20T20:29:09.779Z,99.90
2019-01-20T20:31:38.206Z,99.90
2019-01-20T20:34:06.610Z,99.90
2019-01-20T20:36:34.966Z,99.90
2019-01-20T20:39:03.566Z,99.90
2019-01-20T20:41:32.015Z,99.90
2019-01-20T20:44:00.509Z,99.90
2019-01-20T20:46:30.695Z,99.90
2019-01-20T20:48:59.373Z,99.90
2019-01-20T20:51:27.817Z,99.90
2019-01-20T20:53:56.191Z,99.90
2019-01-20T20:56:24.596Z,99.90
2019-01-20T20:58:53.037Z,99.90
2019-01-20T21:01:21.499Z,99.90
2019-01-20T21:03:49.835Z,99.90
2019-01-20T21:06:18.323Z,99.90
2019-01-20T21:08:48.512Z,99.90
2019-01-20T21:11:16.799Z,99.90
2019-01-20T21:13:45.477Z,99.90
2019-01-20T21:16:14.014Z,99.90
2019-01-20T21:18:42.570Z,99.90
2019-01-20T21:21:10.966Z,99.90
2019-01-20T21:23:39.466Z,99.90
2019-01-20T21:26:07.757Z,99.90
2019-01-20T21:28:36.285Z,99.90
2019-01-20T21:31:04.871Z,99.90
2019-01-20T21:33:33.272Z,99.90
2019-01-20T21:36:01.705Z,99.90
2019-01-20T21:38:30.310Z,99.90
2019-01-20T21:40:58.790Z,99.90
2019-01-20T21:43:36.342Z,99.90
2019-01-20T21:46:04.754Z,99.90
2019-01-20T21:48:33.425Z,99.90
2019-01-20T21:51:02.045Z,99.90
2019-01-20T21:53:30.694Z,99.90
2019-01-20T21:55:59.235Z,99.90
2019-01-20T21:58:27.718Z,99.90
2019-01-20T22:00:56.027Z,99.90
2019-01-20T22:03:24.378Z,99.90
2019-01-20T22:05:52.818Z,99.90
2019-01-20T22:08:21.239Z,99.90
2019-01-20T22:10:49.686Z,99.90
2019-01-20T22:13:19.035Z,99.90
2019-01-20T22:15:47.434Z,99.90
2019-01-20T22:18:15.797Z,99.90
2019-01-20T22:20:44.171Z,99.90
2019-01-20T22:23:12.485Z,99.90
2019-01-20T22:25:40.930Z,99.90
2019-01-20T22:28:09.364Z,99.90
2019-01-20T22:30:37.817Z,99.90
2019-01-20T22:33:06.149Z,99.90
2019-01-20T22:35:34.606Z,99.90
2019-01-20T22:38:03.178Z,99.90
2019-01-20T22:40:31.558Z,99.90
2019-01-20T22:42:59.885Z,99.90
2019-01-20T22:45:28.228Z,99.90
2019-01-20T22:47:56.681Z,99.90
2019-01-20T22:50:25.202Z,99.90
2019-01-20T22:52:53.801Z,99.90
2019-01-20T22:55:22.216Z,99.90
2019-01-20T22:57:50.590Z,99.90
2019-01-20T23:00:28.436Z,99.90
2019-01-20T23:02:56.852Z,99.90
2019-01-20T23:05:25.224Z,99.90
2019-01-20T23:07:53.604Z,99.90
2019-01-20T23:10:22.053Z,99.90
2019-01-20T23:12:50.520Z,99.90
2019-01-20T23:15:19.021Z,99.90
2019-01-20T23:17:47.465Z,99.90
2019-01-20T23:20:16.296Z,99.90
2019-01-20T23:22:44.701Z,99.90
2019-01-20T23:25:13.056Z,99.90
2019-01-20T23:28:00.466Z,99.90
2019-01-20T23:30:28.875Z,99.90
2019-01-20T23:32:57.325Z,99.90
2019-01-20T23:35:25.763Z,99.90
2019-01-20T23:37:54.221Z,99.90
2019-01-20T23:40:22.942Z,99.90
2019-01-20T23:42:51.333Z,99.90
2019-01-20T23:45:19.680Z,99.90
2019-01-20T23:47:48.305Z,99.90
2019-01-20T23:50:16.730Z,99.90
2019-01-20T23:52:45.305Z,99.90
2019-01-20T23:55:14.094Z,99.90
2019-01-20T23:57:43.347Z,99.90
